Nan May — D5KO8 — position and weather

sailwx.info

Track history (hours):
 
Tides and Currents Weather Stations Pressure Air Temp Water Temp Dewpoint Dewpoint Depression Visibility Wind Speed Wind Dir Waves Ship Positions

Nan May

Last reported at 2017-Sep-15 23:57 UTC. Time now 2017-Sep-26 16:37 UTC.
Position N 35°03' E 023°01'.
Warning: this ship's position is 10 days out of date.

Length 228 m; draft 12.8 m.

Type: Cargo ship. MMSI: 636017371.

Date/timePositionNaut miles runAvg speedWind from/ knotsBaromVisibWave heightAir tempDewpointWater temp
2017-Sep-15 23:57N 35°03' E 023°01'912.8
2017-Sep-15 23:16N 35°09' E 022°54'412.8
2017-Sep-15 22:58N 35°12' E 022°50'9013.2
2017-Sep-15 16:08N 36°14' E 021°30'213.5
2017-Sep-15 15:59N 36°16' E 021°29'19612.4
2017-Sep-15 00:06N 39°08' E 019°30'512.6
2017-Sep-14 23:42N 39°12' E 019°27'312.7
2017-Sep-14 23:27N 39°15' E 019°25'612.4
2017-Sep-14 23:00N 39°20' E 019°22'612.2
2017-Sep-14 22:29N 39°26' E 019°19'712.4
2017-Sep-14 21:54N 39°33' E 019°15'512.4
2017-Sep-14 21:30N 39°37' E 019°13'1712.0
2017-Sep-14 20:05N 39°54' E 019°07'112.5
2017-Sep-14 20:00N 39°55' E 019°07'1512.4
2017-Sep-14 18:46N 40°10' E 019°06'512.4
2017-Sep-14 18:23N 40°15' E 019°06'512.2
2017-Sep-14 17:57N 40°20' E 019°05'  
Track history (hours):
 
Tides and Currents Weather Stations Pressure Air Temp Water Temp Dewpoint Dewpoint Depression Visibility Wind Speed Wind Dir Waves Ship Positions

Nan May

Last reported at 2017-Sep-15 23:57 UTC. Time now 2017-Sep-26 16:37 UTC.
Position N 35°03' E 023°01'.
Warning: this ship's position is 10 days out of date.

Length 228 m; draft 12.8 m.

Type: Cargo ship. MMSI: 636017371.

Date/timePositionNaut miles runAvg speedWind from/ knotsBaromVisibWave heightAir tempDewpointWater temp
2017-Sep-15 23:57N 35°03' E 023°01'912.8
2017-Sep-15 23:16N 35°09' E 022°54'412.8
2017-Sep-15 22:58N 35°12' E 022°50'9013.2
2017-Sep-15 16:08N 36°14' E 021°30'213.5
2017-Sep-15 15:59N 36°16' E 021°29'19612.4
2017-Sep-15 00:06N 39°08' E 019°30'512.6
2017-Sep-14 23:42N 39°12' E 019°27'312.7
2017-Sep-14 23:27N 39°15' E 019°25'612.4
2017-Sep-14 23:00N 39°20' E 019°22'612.2
2017-Sep-14 22:29N 39°26' E 019°19'712.4
2017-Sep-14 21:54N 39°33' E 019°15'512.4
2017-Sep-14 21:30N 39°37' E 019°13'1712.0
2017-Sep-14 20:05N 39°54' E 019°07'112.5
2017-Sep-14 20:00N 39°55' E 019°07'1512.4
2017-Sep-14 18:46N 40°10' E 019°06'512.4
2017-Sep-14 18:23N 40°15' E 019°06'512.2
2017-Sep-14 17:57N 40°20' E 019°05'  

Dump ship's entire track history